Tiverton, Rhode Island
Current Conditions -  °F | °C
As of 12:34 PM on Thursday 23 Oct 2014 (Local Time) from KUUU Reporting Station
Overcast Overcast  
Wind Chill: 57°   Ceiling: 900
Heat Index: 57°   Visibility: 10mi
Dew Point: 52°   Wind: 15mph
Humidity: 83%   Direction: 360°N
Pressure: 29.56"   Gusts: NA
Location:  41.62°N, 71.21°W
Report Text: KUUU 231634Z AUTO 36013KT 10SM OVC009 14/11 A2956 RMK AO2 RAB03E27 P0000 T01390111
Loading
Personal Weather Stations






























Interactive Weather Map New forecast layout! Learn more

10-Day Weather Forecast

Advertisements
Track Severe Weather on mobile